Time;durP1;ratioP1;P1;durP2;ratioP2;P2;SDS_P1;SDS_P2;PMS_P1;PMS_P2;Temp;Humidity;BMP_temperature;BMP_pressure;BME280_temperature;BME280_humidity;BME280_pressure;Samples;Min_cycle;Max_cycle;Signal;HPM_P1;HPM_P2
2023/11/08 00:00:03;;;;;;;;;;;;;;;11.71;56.40;100351.69;4993228;27;98494;-68
2023/11/08 00:02:29;;;;;;;;;;;;;;;11.71;56.22;100356.25;4979353;27;98060;-71
2023/11/08 00:04:56;;;;;;;;;;;;;;;11.70;56.17;100355.44;4960755;27;98258;-71
2023/11/08 00:07:22;;;;;;;;;;;;;;;11.71;56.19;100357.09;4978620;27;99219;-68
2023/11/08 00:09:49;;;;;;;;;;;;;;;11.71;56.36;100349.00;4966050;27;100008;-71
2023/11/08 00:12:17;;;;;;;;;;;;;;;11.72;56.57;100356.00;4964505;27;99882;-71
2023/11/08 00:14:46;;;;;;;;;;;;;;;11.74;56.24;100353.00;4949584;27;98417;-68
2023/11/08 00:17:13;;;;;;;;;;;;;;;11.73;56.37;100349.50;4983149;27;100641;-68
2023/11/08 00:19:41;;;;;;;;;;;;;;;11.74;56.22;100347.59;4970389;27;98784;-68
2023/11/08 00:22:07;;;;;;;;;;;;;;;11.74;56.34;100345.72;4971229;27;98109;-68
2023/11/08 00:24:34;;;;;;;;;;;;;;;11.74;56.32;100343.00;4972050;27;99249;-67
2023/11/08 00:27:01;;;;;;;;;;;;;;;11.76;56.47;100342.75;4951290;27;98034;-71
2023/11/08 00:29:28;;;;;;;;;;;;;;;11.75;56.16;100341.94;4946769;27;98299;-67
2023/11/08 00:31:55;;;;;;;;;;;;;;;11.77;56.28;100347.06;4972156;27;98077;-68
2023/11/08 00:34:22;;;;;;;;;;;;;;;11.76;56.23;100343.56;4954866;27;100084;-73
2023/11/08 00:36:49;;;;;;;;;;;;;;;11.76;56.28;100356.25;4968990;27;99854;-68
2023/11/08 00:39:18;;;;;;;;;;;;;;;11.75;56.47;100352.75;4964647;27;98436;-68
2023/11/08 00:41:44;;;;;;;;;;;;;;;11.75;56.15;100357.31;4961259;27;98134;-72
2023/11/08 00:44:11;;;;;;;;;;;;;;;11.75;56.30;100357.31;4951069;27;97992;-67
2023/11/08 00:46:39;;;;;;;;;;;;;;;11.74;56.30;100353.81;4953212;27;97950;-68
2023/11/08 00:49:05;;;;;;;;;;;;;;;11.73;56.20;100348.69;4955581;27;101275;-69
2023/11/08 00:51:32;;;;;;;;;;;;;;;11.73;56.16;100352.19;4968133;27;99803;-71
2023/11/08 00:54:00;;;;;;;;;;;;;;;11.72;56.17;100350.59;4986794;27;99621;-71
2023/11/08 00:56:27;;;;;;;;;;;;;;;11.73;56.28;100346.00;4950716;27;98615;-72
2023/11/08 00:58:54;;;;;;;;;;;;;;;11.73;56.34;100348.69;4965436;27;98021;-71
2023/11/08 01:01:22;;;;;;;;;;;;;;;11.72;56.22;100349.78;4947367;27;98161;-71
2023/11/08 01:03:50;;;;;;;;;;;;;;;11.72;56.31;100352.50;4970150;27;98029;-72
2023/11/08 01:06:16;;;;;;;;;;;;;;;11.71;56.19;100349.00;4947252;27;98587;-68
2023/11/08 01:08:43;;;;;;;;;;;;;;;11.72;56.32;100352.50;4953008;27;99271;-71
2023/11/08 01:11:09;;;;;;;;;;;;;;;11.73;56.36;100354.09;4952887;27;98167;-71
2023/11/08 01:13:36;;;;;;;;;;;;;;;11.72;56.09;100361.41;4990427;27;98168;-68
2023/11/08 01:16:05;;;;;;;;;;;;;;;11.71;56.32;100357.09;4996657;27;101110;-68
2023/11/08 01:18:34;;;;;;;;;;;;;;;11.69;56.32;100353.03;4990391;27;98059;-71
2023/11/08 01:21:00;;;;;;;;;;;;;;;11.70;56.24;100352.75;4986725;27;99208;-67
2023/11/08 01:23:27;;;;;;;;;;;;;;;11.69;56.19;100350.34;4967257;27;99126;-68
2023/11/08 01:25:53;;;;;;;;;;;;;;;11.68;56.26;100349.53;4994852;27;98010;-71
2023/11/08 01:28:21;;;;;;;;;;;;;;;11.68;56.32;100352.22;4994081;27;98920;-68
2023/11/08 01:30:48;;;;;;;;;;;;;;;11.68;56.28;100356.84;4973310;27;98205;-71
2023/11/08 01:33:14;;;;;;;;;;;;;;;11.66;56.27;100351.69;4979157;27;98577;-71
2023/11/08 01:35:42;;;;;;;;;;;;;;;11.66;56.32;100350.88;4968302;27;97989;-68
2023/11/08 01:38:08;;;;;;;;;;;;;;;11.65;56.24;100352.78;4964628;27;98586;-71
2023/11/08 01:40:35;;;;;;;;;;;;;;;11.65;56.38;100351.97;4982239;27;98102;-68
2023/11/08 01:43:02;;;;;;;;;;;;;;;11.64;56.37;100343.06;4970752;27;99011;-68
2023/11/08 01:45:29;;;;;;;;;;;;;;;11.64;56.37;100343.06;4969063;27;98147;-68
2023/11/08 01:47:56;;;;;;;;;;;;;;;11.65;56.24;100349.28;4973294;27;98828;-72
2023/11/08 01:50:23;;;;;;;;;;;;;;;11.63;56.30;100351.44;4964278;27;98838;-68
2023/11/08 01:52:49;;;;;;;;;;;;;;;11.64;56.41;100353.06;4980755;27;97858;-68
2023/11/08 01:55:15;;;;;;;;;;;;;;;11.63;56.35;100346.03;4974430;27;99206;-68
2023/11/08 01:57:42;;;;;;;;;;;;;;;11.62;56.23;100344.44;5001417;27;98247;-72
2023/11/08 02:00:09;;;;;;;;;;;;;;;11.62;56.21;100344.44;4974808;27;99236;-68
2023/11/08 02:02:35;;;;;;;;;;;;;;;11.62;56.28;100349.81;4972340;27;99688;-68
2023/11/08 02:05:05;;;;;;;;;;;;;;;11.63;56.18;100348.75;4970471;27;98610;-71
2023/11/08 02:07:31;;;;;;;;;;;;;;;11.62;56.22;100329.03;4970352;27;99492;-71
2023/11/08 02:09:58;;;;;;;;;;;;;;;11.62;56.28;100341.72;4983491;27;99158;-68
2023/11/08 02:12:27;;;;;;;;;;;;;;;11.61;56.30;100338.22;4970135;27;99614;-71
2023/11/08 02:15:01;;;;;;;;;;;;;;;11.63;56.23;100346.88;4972230;27;98915;-71
2023/11/08 02:17:28;;;;;;;;;;;;;;;11.64;56.35;100347.66;4982367;27;100244;-71
2023/11/08 02:19:55;;;;;;;;;;;;;;;11.64;56.31;100342.28;4980804;27;98201;-67
2023/11/08 02:22:21;;;;;;;;;;;;;;;11.64;56.23;100340.38;4989888;27;98755;-68
2023/11/08 02:24:49;;;;;;;;;;;;;;;11.64;56.26;100345.78;4986579;27;98934;-68
2023/11/08 02:27:17;;;;;;;;;;;;;;;11.64;56.18;100340.38;4967883;27;97953;-68
2023/11/08 02:29:44;;;;;;;;;;;;;;;11.64;56.25;100345.78;4971539;27;98153;-68
2023/11/08 02:32:12;;;;;;;;;;;;;;;11.65;56.36;100350.09;4963838;27;99323;-67
2023/11/08 02:34:39;;;;;;;;;;;;;;;11.66;56.35;100357.09;4964932;27;98425;-68
2023/11/08 02:37:05;;;;;;;;;;;;;;;11.66;56.23;100346.28;4969330;27;98138;-71
2023/11/08 02:39:32;;;;;;;;;;;;;;;11.66;56.25;100350.88;5004935;27;98340;-68
2023/11/08 02:42:00;;;;;;;;;;;;;;;11.66;56.21;100343.59;4970812;27;97978;-68
2023/11/08 02:44:27;;;;;;;;;;;;;;;11.66;56.37;100346.28;4964517;27;98052;-68
2023/11/08 02:46:53;;;;;;;;;;;;;;;11.67;56.21;100350.63;4981196;27;99404;-71
2023/11/08 02:49:20;;;;;;;;;;;;;;;11.67;56.21;100347.09;4966488;27;98971;-72
2023/11/08 02:51:47;;;;;;;;;;;;;;;11.66;56.11;100354.41;4983300;27;98181;-71
2023/11/08 02:54:13;;;;;;;;;;;;;;;11.67;56.14;100355.19;4966874;27;99442;-71
2023/11/08 02:56:41;;;;;;;;;;;;;;;11.66;56.21;100351.69;4970215;27;99307;-71
2023/11/08 02:59:08;;;;;;;;;;;;;;;11.67;56.37;100352.50;4964331;27;98081;-68
2023/11/08 03:01:37;;;;;;;;;;;;;;;11.65;56.18;100352.78;4961030;27;98372;-68
2023/11/08 03:04:03;;;;;;;;;;;;;;;11.64;56.26;100361.16;4986465;27;99482;-67
2023/11/08 03:06:32;;;;;;;;;;;;;;;11.64;56.35;100350.38;4972035;27;99554;-68
2023/11/08 03:08:59;;;;;;;;;;;;;;;11.63;56.18;100349.56;4960602;27;98117;-68
2023/11/08 03:11:26;;;;;;;;;;;;;;;11.64;56.07;100351.19;4966161;27;98040;-68
2023/11/08 03:13:53;;;;;;;;;;;;;;;11.63;56.42;100346.88;4970059;27;102307;-72
2023/11/08 03:16:20;;;;;;;;;;;;;;;11.63;56.28;100351.44;4975386;27;99953;-68
2023/11/08 03:18:49;;;;;;;;;;;;;;;11.63;56.26;100352.28;4963164;27;106817;-71
2023/11/08 03:21:15;;;;;;;;;;;;;;;11.62;56.24;100350.63;4984058;27;99059;-71
2023/11/08 03:23:42;;;;;;;;;;;;;;;11.63;56.32;100351.44;4972637;27;99545;-71
2023/11/08 03:26:11;;;;;;;;;;;;;;;11.63;56.18;100348.75;4967595;27;98155;-68
2023/11/08 03:28:37;;;;;;;;;;;;;;;11.62;56.32;100350.63;4972151;27;99751;-71
2023/11/08 03:31:04;;;;;;;;;;;;;;;11.62;56.24;100356.03;4966850;27;98253;-68
2023/11/08 03:33:31;;;;;;;;;;;;;;;11.61;56.32;100356.31;4966733;27;98012;-71
2023/11/08 03:36:00;;;;;;;;;;;;;;;11.61;56.17;100354.44;4966032;27;99684;-67
2023/11/08 03:38:27;;;;;;;;;;;;;;;11.61;56.22;100359.03;4978328;27;98590;-68
2023/11/08 03:40:53;;;;;;;;;;;;;;;11.60;56.30;100355.50;4983360;27;98196;-71
2023/11/08 03:43:24;;;;;;;;;;;;;;;11.60;56.24;100352.81;4983871;27;98018;-68
2023/11/08 03:45:51;;;;;;;;;;;;;;;11.60;56.22;100352.00;4971118;27;98264;-71
2023/11/08 03:48:18;;;;;;;;;;;;;;;11.60;56.14;100354.72;4985544;27;99156;-67
2023/11/08 03:50:46;;;;;;;;;;;;;;;11.60;56.18;100360.91;4983384;27;99912;-67
2023/11/08 03:53:13;;;;;;;;;;;;;;;11.60;56.28;100363.63;4986756;27;98950;-67
2023/11/08 03:55:39;;;;;;;;;;;;;;;11.59;56.35;100361.97;4969076;27;98781;-67
2023/11/08 03:58:06;;;;;;;;;;;;;;;11.59;56.20;100372.78;4965800;27;98245;-71
2023/11/08 04:00:32;;;;;;;;;;;;;;;11.60;56.22;100369.00;4972401;27;98110;-71
2023/11/08 04:02:59;;;;;;;;;;;;;;;11.60;56.28;100360.09;4979120;27;98121;-71
2023/11/08 04:05:29;;;;;;;;;;;;;;;11.60;56.38;100366.31;4967645;27;98857;-70
2023/11/08 04:07:57;;;;;;;;;;;;;;;11.60;56.18;100369.00;4986929;27;98198;-69
2023/11/08 04:10:24;;;;;;;;;;;;;;;11.60;56.25;100368.22;4987405;27;98428;-71
2023/11/08 04:12:51;;;;;;;;;;;;;;;11.60;56.20;100370.91;4972140;27;98410;-67
2023/11/08 04:15:17;;;;;;;;;;;;;;;11.59;56.25;100375.47;4963781;27;97856;-71
2023/11/08 04:17:44;;;;;;;;;;;;;;;11.61;56.46;100380.63;4966087;27;98297;-71
2023/11/08 04:20:12;;;;;;;;;;;;;;;11.61;56.41;100380.63;4969202;27;98041;-67
2023/11/08 04:22:42;;;;;;;;;;;;;;;11.60;56.13;100382.50;4966925;27;99058;-71
2023/11/08 04:25:12;;;;;;;;;;;;;;;11.60;56.30;100369.00;4984287;27;99724;-71
2023/11/08 04:27:39;;;;;;;;;;;;;;;11.59;56.20;100366.56;4966019;27;99881;-71
2023/11/08 04:30:06;;;;;;;;;;;;;;;11.61;56.17;100380.63;4986728;27;98010;-67
2023/11/08 04:32:33;;;;;;;;;;;;;;;11.61;56.28;100372.53;4966765;27;102528;-71
2023/11/08 04:35:01;;;;;;;;;;;;;;;11.61;56.37;100375.22;4981255;27;98592;-70
2023/11/08 04:37:30;;;;;;;;;;;;;;;11.61;56.19;100369.81;4975384;27;99490;-67
2023/11/08 04:39:57;;;;;;;;;;;;;;;11.60;56.25;100368.22;4968224;27;99569;-67
2023/11/08 04:42:25;;;;;;;;;;;;;;;11.62;56.20;100368.72;4986275;27;99226;-67
2023/11/08 04:44:51;;;;;;;;;;;;;;;11.61;56.34;100359.81;4969130;27;97995;-71
2023/11/08 04:47:18;;;;;;;;;;;;;;;11.61;56.13;100369.81;4978476;27;99019;-70
2023/11/08 04:49:50;;;;;;;;;;;;;;;11.60;56.21;100362.81;4968844;27;97969;-67
2023/11/08 04:52:17;;;;;;;;;;;;;;;11.61;56.20;100367.13;4966935;27;100641;-71
2023/11/08 04:54:48;;;;;;;;;;;;;;;11.61;56.12;100376.03;4965212;27;99454;-66
2023/11/08 04:57:17;;;;;;;;;;;;;;;11.60;56.16;100377.13;4963714;27;98184;-67
2023/11/08 04:59:48;;;;;;;;;;;;;;;11.60;56.12;100371.72;4975966;27;98131;-67
2023/11/08 05:02:15;;;;;;;;;;;;;;;11.61;56.30;100372.53;4969668;27;99348;-71
2023/11/08 05:04:45;;;;;;;;;;;;;;;11.61;56.22;100386.00;4975557;27;98203;-67
2023/11/08 05:07:15;;;;;;;;;;;;;;;11.60;56.05;100370.91;4987045;27;99082;-70
2023/11/08 05:09:43;;;;;;;;;;;;;;;11.59;56.21;100385.47;4966789;27;98376;-70
2023/11/08 05:12:10;;;;;;;;;;;;;;;11.59;56.29;100380.06;4970110;27;99021;-71
2023/11/08 05:14:37;;;;;;;;;;;;;;;11.60;56.26;100384.41;4962344;27;99016;-71
2023/11/08 05:17:07;;;;;;;;;;;;;;;11.57;56.21;100374.97;4980034;27;98991;-67
2023/11/08 05:19:35;;;;;;;;;;;;;;;11.57;56.08;100372.25;4978667;27;98428;-67
2023/11/08 05:22:01;;;;;;;;;;;;;;;11.57;56.68;100371.44;4966823;27;100186;-71
2023/11/08 05:24:30;;;;;;;;;;;;;;;11.57;56.21;100369.56;4970398;27;98296;-67
2023/11/08 05:26:57;;;;;;;;;;;;;;;11.57;56.29;100371.44;4964429;27;98836;-73
2023/11/08 05:29:23;;;;;;;;;;;;;;;11.56;56.23;100378.75;4982878;27;100167;-71
2023/11/08 05:31:51;;;;;;;;;;;;;;;11.55;56.24;100375.25;4978479;27;98404;-68
2023/11/08 05:34:18;;;;;;;;;;;;;;;11.55;56.23;100382.50;4975232;27;99182;-71
2023/11/08 05:36:44;;;;;;;;;;;;;;;11.54;56.20;100378.19;4963647;27;99344;-71
2023/11/08 05:39:11;;;;;;;;;;;;;;;11.54;56.18;100379.00;4967981;27;98599;-69
2023/11/08 05:41:38;;;;;;;;;;;;;;;11.54;56.24;100389.00;4966476;27;98376;-68
2023/11/08 05:44:04;;;;;;;;;;;;;;;11.52;56.32;100378.50;4966787;27;98278;-67
2023/11/08 05:46:30;;;;;;;;;;;;;;;11.52;56.24;100380.38;4977595;27;99108;-71
2023/11/08 05:48:57;;;;;;;;;;;;;;;11.51;56.29;100384.97;4981802;27;98136;-68
2023/11/08 05:51:25;;;;;;;;;;;;;;;11.49;56.27;100384.44;4969009;27;98190;-71
2023/11/08 05:53:51;;;;;;;;;;;;;;;11.50;56.22;100387.94;4968609;27;98338;-68
2023/11/08 05:56:18;;;;;;;;;;;;;;;11.48;56.38;100392.81;4969508;27;99231;-67
2023/11/08 05:58:44;;;;;;;;;;;;;;;11.49;56.27;100394.44;4969925;27;97969;-67
2023/11/08 06:01:19;;;;;;;;;;;;;;;11.48;56.20;100392.81;4966962;27;99332;-71
2023/11/08 06:03:46;;;;;;;;;;;;;;;11.48;56.24;100400.91;4966260;27;100571;-71
2023/11/08 06:06:13;;;;;;;;;;;;;;;11.47;56.22;100405.47;4963643;27;103016;-70
2023/11/08 06:08:40;;;;;;;;;;;;;;;11.47;56.25;100402.78;4974882;27;98684;-67
2023/11/08 06:11:07;;;;;;;;;;;;;;;11.48;56.18;100400.91;4969663;27;99902;-70
2023/11/08 06:13:34;;;;;;;;;;;;;;;11.47;56.37;100402.78;4959252;27;98166;-71
2023/11/08 06:16:01;;;;;;;;;;;;;;;11.48;56.13;100404.41;4977231;27;98007;-72
2023/11/08 06:18:30;;;;;;;;;;;;;;;11.50;56.18;100409.53;4968685;27;98992;-71
2023/11/08 06:20:59;;;;;;;;;;;;;;;11.51;56.10;100416.53;4960950;27;98415;-67
2023/11/08 06:23:25;;;;;;;;;;;;;;;11.51;55.78;100413.84;4971203;27;98177;-71
2023/11/08 06:25:52;;;;;;;;;;;;;;;11.52;56.02;100412.78;4965417;27;97908;-67
2023/11/08 06:28:18;;;;;;;;;;;;;;;11.52;56.12;100408.19;4966585;27;99184;-71
2023/11/08 06:30:44;;;;;;;;;;;;;;;11.55;56.22;100413.03;4996822;27;98216;-71
2023/11/08 06:33:11;;;;;;;;;;;;;;;11.57;56.17;100418.16;4972638;27;98599;-70
2023/11/08 06:35:41;;;;;;;;;;;;;;;11.58;56.12;100419.75;4970074;27;99984;-71
2023/11/08 06:38:08;;;;;;;;;;;;;;;11.61;56.11;100424.63;4968243;27;99015;-72
2023/11/08 06:40:34;;;;;;;;;;;;;;;11.62;56.26;100423.53;4965525;27;98372;-68
2023/11/08 06:43:02;;;;;;;;;;;;;;;11.64;56.24;100423.28;4974439;27;98192;-68
2023/11/08 06:45:28;;;;;;;;;;;;;;;11.64;56.14;100429.47;4975900;27;100290;-67
2023/11/08 06:47:54;;;;;;;;;;;;;;;11.63;56.22;100422.47;4990293;27;98021;-71
2023/11/08 06:50:21;;;;;;;;;;;;;;;11.65;56.02;100424.88;4967610;27;99869;-71
2023/11/08 06:52:48;;;;;;;;;;;;;;;11.65;56.12;100428.38;4969607;27;98572;-71
2023/11/08 06:55:16;;;;;;;;;;;;;;;11.67;56.20;100438.91;4965725;27;98353;-67
2023/11/08 06:57:42;;;;;;;;;;;;;;;11.67;56.21;100437.03;4970720;27;99944;-71
2023/11/08 07:00:14;;;;;;;;;;;;;;;11.67;56.14;100444.28;4998452;27;118903;-68
2023/11/08 07:02:41;;;;;;;;;;;;;;;11.69;56.18;100439.44;5004065;27;98519;-69
2023/11/08 07:05:09;;;;;;;;;;;;;;;11.71;56.20;100454.28;4970930;27;98198;-68
2023/11/08 07:07:36;;;;;;;;;;;;;;;11.74;56.15;100452.91;4987405;27;98270;-68
2023/11/08 07:10:05;;;;;;;;;;;;;;;11.77;56.14;100455.06;4970063;27;99281;-67
2023/11/08 07:12:33;;;;;;;;;;;;;;;11.80;55.99;100449.13;4970617;27;100476;-67
2023/11/08 07:15:00;;;;;;;;;;;;;;;11.83;56.00;100443.22;4971398;27;98099;-67
2023/11/08 07:17:29;;;;;;;;;;;;;;;11.85;56.00;100443.72;4966212;27;98939;-68
2023/11/08 07:19:59;;;;;;;;;;;;;;;11.91;55.99;100449.94;4969129;27;97937;-67
2023/11/08 07:22:28;;;;;;;;;;;;;;;11.95;55.90;100456.41;4984021;27;98624;-71
2023/11/08 07:24:56;;;;;;;;;;;;;;;11.95;56.05;100454.50;4970366;27;98126;-68
2023/11/08 07:27:22;;;;;;;;;;;;;;;11.96;55.89;100453.41;4972225;27;99079;-71
2023/11/08 07:29:49;;;;;;;;;;;;;;;11.97;55.94;100456.91;4993729;27;99245;-67
2023/11/08 07:32:17;;;;;;;;;;;;;;;12.02;55.90;100463.13;4964075;27;98396;-67
2023/11/08 07:34:44;;;;;;;;;;;;;;;12.07;55.96;100459.59;4971252;27;97992;-68
2023/11/08 07:37:13;;;;;;;;;;;;;;;12.09;55.75;100464.72;4981636;27;98055;-68
2023/11/08 07:39:40;;;;;;;;;;;;;;;12.08;55.77;100465.81;4982764;27;98346;-71
2023/11/08 07:42:07;;;;;;;;;;;;;;;12.07;55.79;100466.91;4986865;27;98322;-67
2023/11/08 07:44:34;;;;;;;;;;;;;;;12.06;56.13;100468.75;4966918;27;99866;-71
2023/11/08 07:47:02;;;;;;;;;;;;;;;12.09;55.85;100467.41;4968507;27;98275;-68
2023/11/08 07:49:28;;;;;;;;;;;;;;;12.08;55.98;100468.50;4965137;27;100002;-72
2023/11/08 07:51:54;;;;;;;;;;;;;;;12.07;55.80;100475.81;4965520;27;98683;-71
2023/11/08 07:54:20;;;;;;;;;;;;;;;12.08;56.08;100476.59;4965991;27;100344;-71
2023/11/08 07:56:47;;;;;;;;;;;;;;;12.10;55.82;100477.13;4987856;27;98263;-68
2023/11/08 07:59:14;;;;;;;;;;;;;;;12.15;55.83;100466.31;4964783;27;98265;-71
2023/11/08 08:01:40;;;;;;;;;;;;;;;12.23;55.85;100471.13;4980583;27;98226;-71
2023/11/08 08:04:06;;;;;;;;;;;;;;;12.21;55.86;100468.69;4970771;27;98023;-71
2023/11/08 08:06:33;;;;;;;;;;;;;;;12.19;55.69;100470.06;4970394;27;98485;-71
2023/11/08 08:09:00;;;;;;;;;;;;;;;12.19;55.74;100470.88;4962746;27;100702;-70
2023/11/08 08:11:26;;;;;;;;;;;;;;;12.25;55.68;100480.56;4965714;27;98019;-71
2023/11/08 08:13:53;;;;;;;;;;;;;;;12.33;55.73;100473.78;4967735;27;98212;-71
2023/11/08 08:16:19;;;;;;;;;;;;;;;12.45;55.41;100476.13;4972137;27;100500;-71
2023/11/08 08:18:50;;;;;;;;;;;;;;;12.55;55.42;100480.69;4984867;27;98251;-71
2023/11/08 08:21:18;;;;;;;;;;;;;;;12.69;55.33;100485.19;4995001;27;98191;-71
2023/11/08 08:23:45;;;;;;;;;;;;;;;12.92;55.10;100475.53;4961503;27;99191;-68
2023/11/08 08:26:12;;;;;;;;;;;;;;;12.97;55.37;100475.53;4981360;27;99341;-69
2023/11/08 08:28:39;;;;;;;;;;;;;;;12.99;55.11;100470.63;4968724;27;99525;-68
2023/11/08 08:31:05;;;;;;;;;;;;;;;13.04;55.46;100472.47;4979739;27;98681;-71
2023/11/08 08:33:33;;;;;;;;;;;;;;;13.07;55.33;100479.22;4961082;27;98283;-68
2023/11/08 08:36:02;;;;;;;;;;;;;;;13.15;55.06;100482.13;4960684;27;98258;-67
2023/11/08 08:38:29;;;;;;;;;;;;;;;13.24;54.95;100482.34;4964609;27;98858;-71
2023/11/08 08:40:56;;;;;;;;;;;;;;;13.30;55.13;100491.25;4972642;27;99652;-68
2023/11/08 08:43:23;;;;;;;;;;;;;;;13.35;55.21;100488.47;4972021;27;98513;-71
2023/11/08 08:45:50;;;;;;;;;;;;;;;13.47;54.96;100492.41;4982213;27;98318;-71
2023/11/08 08:48:18;;;;;;;;;;;;;;;13.59;55.20;100496.66;4970348;27;98617;-68
2023/11/08 08:50:45;;;;;;;;;;;;;;;13.58;55.12;100493.13;4969741;27;98182;-71
2023/11/08 08:53:12;;;;;;;;;;;;;;;13.62;55.37;100498.78;4963973;27;99402;-68
2023/11/08 08:55:39;;;;;;;;;;;;;;;13.62;55.12;100501.50;4980317;27;98248;-68
2023/11/08 08:58:06;;;;;;;;;;;;;;;13.61;55.17;100513.44;4969626;27;99557;-68
2023/11/08 09:00:35;;;;;;;;;;;;;;;13.55;55.27;100504.53;4975549;27;99997;-68
2023/11/08 09:03:03;;;;;;;;;;;;;;;13.63;55.05;100511.22;4969823;27;98465;-71
2023/11/08 09:05:29;;;;;;;;;;;;;;;13.88;55.01;100513.69;4970802;27;97986;-68
2023/11/08 09:07:57;;;;;;;;;;;;;;;13.98;54.66;100512.75;4971578;27;98676;-68
2023/11/08 09:10:23;;;;;;;;;;;;;;;14.01;55.13;100517.59;4983255;27;98377;-71
2023/11/08 09:12:50;;;;;;;;;;;;;;;14.06;54.91;100511.31;4994851;27;98217;-71
2023/11/08 09:15:16;;;;;;;;;;;;;;;14.18;54.99;100519.81;4982220;27;98317;-71
2023/11/08 09:17:43;;;;;;;;;;;;;;;14.29;54.70;100509.66;5000526;27;98366;-68
2023/11/08 09:20:09;;;;;;;;;;;;;;;14.63;54.32;100517.66;4961280;27;98374;-68
2023/11/08 09:22:36;;;;;;;;;;;;;;;14.91;54.09;100513.19;4964305;27;98174;-68
2023/11/08 09:25:06;;;;;;;;;;;;;;;14.86;54.44;100526.81;4983490;27;98109;-68
2023/11/08 09:27:33;;;;;;;;;;;;;;;14.68;54.77;100515.66;4970412;27;98352;-67
2023/11/08 09:29:59;;;;;;;;;;;;;;;14.58;55.11;100523.13;4983270;27;99840;-68
2023/11/08 09:32:27;;;;;;;;;;;;;;;14.48;55.22;100533.00;4983613;27;98226;-71
2023/11/08 09:34:57;;;;;;;;;;;;;;;14.41;55.33;100529.03;4969292;27;99512;-68
2023/11/08 09:37:23;;;;;;;;;;;;;;;14.36;55.39;100524.50;4970640;27;98687;-70
2023/11/08 09:39:51;;;;;;;;;;;;;;;14.36;55.30;100529.91;4967376;27;98157;-67
2023/11/08 09:42:18;;;;;;;;;;;;;;;14.36;55.35;100531.81;4983141;27;98030;-71
2023/11/08 09:44:47;;;;;;;;;;;;;;;14.27;55.47;100536.28;4973599;27;98274;-69
2023/11/08 09:47:16;;;;;;;;;;;;;;;14.23;55.64;100526.00;4961420;27;98383;-71
2023/11/08 09:49:50;;;;;;;;;;;;;;;14.23;55.18;100533.34;4964787;27;98924;-69
2023/11/08 09:52:16;;;;;;;;;;;;;;;14.23;55.22;100530.63;4964940;27;98301;-69
2023/11/08 09:54:44;;;;;;;;;;;;;;;14.23;55.44;100534.16;4966735;27;98784;-72
2023/11/08 09:57:12;;;;;;;;;;;;;;;14.38;55.14;100524.19;4972108;27;98304;-71
2023/11/08 09:59:38;;;;;;;;;;;;;;;14.52;55.03;100529.75;4993931;27;98525;-71
2023/11/08 10:02:07;;;;;;;;;;;;;;;14.80;54.61;100520.66;4966638;27;98510;-69
2023/11/08 10:04:33;;;;;;;;;;;;;;;15.20;54.06;100516.50;4974496;27;98582;-72
2023/11/08 10:07:00;;;;;;;;;;;;;;;15.31;54.20;100519.84;4974342;27;98160;-72
2023/11/08 10:09:31;;;;;;;;;;;;;;;15.36;54.23;100517.03;4979945;27;98579;-69
2023/11/08 10:11:59;;;;;;;;;;;;;;;15.42;54.43;100520.50;4987672;27;98853;-72
2023/11/08 10:14:36;;;;;;;;;;;;;;;15.44;54.54;100519.09;4979376;27;101138;-68
2023/11/08 10:17:03;;;;;;;;;;;;;;;15.51;54.49;100528.75;4970505;27;98160;-69
2023/11/08 10:19:47;;;;;;;;;;;;;;;15.55;54.51;100521.63;5002311;27;98131;-69
2023/11/08 10:22:23;;;;;;;;;;;;;;;15.48;54.56;100524.72;4967027;27;98120;-69
2023/11/08 10:24:57;;;;;;;;;;;;;;;15.32;54.90;100524.16;4998906;27;98558;-72
2023/11/08 10:27:28;;;;;;;;;;;;;;;15.32;55.07;100523.38;4993128;27;98336;-72
2023/11/08 10:30:13;;;;;;;;;;;;;;;15.29;55.01;100523.97;4974926;27;99317;-69
2023/11/08 10:32:39;;;;;;;;;;;;;;;15.23;55.05;100528.69;4987524;27;99289;-72
2023/11/08 10:35:14;;;;;;;;;;;;;;;15.26;55.06;100516.44;5000176;27;98504;-72
2023/11/08 10:37:41;;;;;;;;;;;;;;;15.64;54.43;100522.53;4984145;27;98292;-72
2023/11/08 10:40:08;;;;;;;;;;;;;;;15.59;54.66;100520.72;4964792;27;98755;-72
2023/11/08 10:42:35;;;;;;;;;;;;;;;15.42;54.93;100515.84;4983133;27;98325;-71
2023/11/08 10:45:09;;;;;;;;;;;;;;;15.25;55.32;100506.66;4980040;27;98263;-69
2023/11/08 10:47:37;;;;;;;;;;;;;;;15.13;55.33;100516.09;4973266;27;98327;-72
2023/11/08 10:50:05;;;;;;;;;;;;;;;15.11;55.52;100526.41;4966531;27;100495;-72
2023/11/08 10:52:37;;;;;;;;;;;;;;;15.12;55.30;100517.16;4970441;27;98182;-69
2023/11/08 10:55:08;;;;;;;;;;;;;;;15.27;55.02;100507.97;4969139;27;97954;-68
2023/11/08 10:57:35;;;;;;;;;;;;;;;15.38;54.91;100505.91;4972643;27;98089;-73
2023/11/08 11:00:03;;;;;;;;;;;;;;;15.44;54.73;100499.25;4972494;27;98630;-70
2023/11/08 11:02:43;;;;;;;;;;;;;;;15.55;54.76;100500.69;4981784;27;99245;-68
2023/11/08 11:05:10;;;;;;;;;;;;;;;15.63;54.54;100499.19;4969841;27;98544;-71
2023/11/08 11:07:42;;;;;;;;;;;;;;;15.53;54.72;100502.13;4972036;27;98281;-70
2023/11/08 11:10:10;;;;;;;;;;;;;;;15.46;55.01;100510.63;4968215;27;98623;-71
2023/11/08 11:12:42;;;;;;;;;;;;;;;15.43;54.94;100503.09;4969806;27;99598;-71
2023/11/08 11:15:15;;;;;;;;;;;;;;;15.42;54.95;100505.00;4979691;27;98072;-71
2023/11/08 11:17:45;;;;;;;;;;;;;;;15.47;54.93;100501.38;4987824;27;99458;-70
2023/11/08 11:20:12;;;;;;;;;;;;;;;15.54;54.91;100501.00;4980683;27;98627;-71
2023/11/08 11:22:43;;;;;;;;;;;;;;;15.58;54.68;100491.94;4981747;27;98180;-70
2023/11/08 11:25:11;;;;;;;;;;;;;;;15.55;54.95;100497.16;4988882;27;98089;-68
2023/11/08 11:27:41;;;;;;;;;;;;;;;15.53;55.04;100502.91;4964933;27;98665;-70
2023/11/08 11:30:17;;;;;;;;;;;;;;;15.51;55.04;100501.59;4983289;27;98186;-68
2023/11/08 11:32:51;;;;;;;;;;;;;;;15.47;54.92;100502.19;5012713;27;98452;-70
2023/11/08 11:35:17;;;;;;;;;;;;;;;15.38;55.11;100500.47;4968130;27;98178;-70
2023/11/08 11:38:03;;;;;;;;;;;;;;;15.32;55.16;100502.44;4987725;27;98376;-68
2023/11/08 11:40:31;;;;;;;;;;;;;;;15.28;55.08;100497.91;4972708;27;98174;-70
2023/11/08 11:42:58;;;;;;;;;;;;;;;15.21;55.22;100492.88;4965458;27;97935;-68
2023/11/08 11:45:29;;;;;;;;;;;;;;;15.21;55.40;100499.13;4977384;27;98469;-71
2023/11/08 11:47:57;;;;;;;;;;;;;;;15.13;55.36;100496.25;4969066;27;98138;-70
2023/11/08 11:50:25;;;;;;;;;;;;;;;15.07;55.37;100497.47;4970461;27;98046;-71
2023/11/08 11:52:53;;;;;;;;;;;;;;;15.04;55.26;100495.31;4965979;27;98704;-68
2023/11/08 11:55:20;;;;;;;;;;;;;;;14.93;55.60;100505.53;4984409;27;100096;-71
2023/11/08 11:57:47;;;;;;;;;;;;;;;14.93;55.35;100500.94;4972241;27;99934;-70
2023/11/08 12:00:14;;;;;;;;;;;;;;;14.98;55.39;100497.31;4962356;27;98696;-70
2023/11/08 12:02:41;;;;;;;;;;;;;;;14.94;55.16;100502.53;4965150;27;100068;-71
2023/11/08 12:05:08;;;;;;;;;;;;;;;14.88;55.45;100505.63;4981996;27;98541;-68
2023/11/08 12:07:37;;;;;;;;;;;;;;;14.83;55.27;100503.78;4988313;27;98190;-68
2023/11/08 12:10:10;;;;;;;;;;;;;;;14.75;55.29;100503.66;4983147;27;98054;-68
2023/11/08 12:12:38;;;;;;;;;;;;;;;14.72;55.60;100505.84;4968426;27;99324;-70
2023/11/08 12:15:15;;;;;;;;;;;;;;;14.67;55.33;100505.94;4967511;27;98590;-68
2023/11/08 12:17:51;;;;;;;;;;;;;;;14.70;55.42;100497.22;4984647;27;99770;-68
2023/11/08 12:20:20;;;;;;;;;;;;;;;14.69;55.22;100503.72;4983800;27;99811;-68
2023/11/08 12:22:50;;;;;;;;;;;;;;;14.67;55.46;100499.69;4976364;27;98949;-71
2023/11/08 12:25:20;;;;;;;;;;;;;;;14.66;55.43;100496.19;4982845;27;99348;-68
2023/11/08 12:27:56;;;;;;;;;;;;;;;14.70;55.25;100499.91;4987172;27;100998;-70
2023/11/08 12:30:23;;;;;;;;;;;;;;;14.70;55.68;100501.81;4986493;27;101494;-68
2023/11/08 12:32:50;;;;;;;;;;;;;;;14.67;55.34;100491.56;4984551;27;98185;-71
2023/11/08 12:35:18;;;;;;;;;;;;;;;14.63;55.57;100496.75;4986101;27;99812;-70
2023/11/08 12:37:45;;;;;;;;;;;;;;;14.59;55.47;100503.06;4979107;27;98758;-68